Time;durP1;ratioP1;P1;durP2;ratioP2;P2;SDS_P1;SDS_P2;PMS_P1;PMS_P2;Temp;Humidity;BMP_temperature;BMP_pressure;BME280_temperature;BME280_humidity;BME280_pressure;Samples;Min_cycle;Max_cycle;Signal;HPM_P1;HPM_P2
2022/08/21 00:00:20;;;;;;;8.53;3.30;;;19.10;99.90;;;;;;5075492;28;20473;-57
2022/08/21 00:02:49;;;;;;;7.03;3.57;;;19.20;99.90;;;;;;5075460;28;20455;-56
2022/08/21 00:05:17;;;;;;;5.50;3.60;;;19.20;99.90;;;;;;5074525;28;20575;-57
2022/08/21 00:07:44;;;;;;;7.93;3.90;;;18.90;99.90;;;;;;5075175;28;20458;-57
2022/08/21 00:10:12;;;;;;;4.80;3.60;;;18.80;99.90;;;;;;5074817;28;21022;-56
2022/08/21 00:12:42;;;;;;;3.90;3.07;;;18.90;99.90;;;;;;5075161;28;20427;-56
2022/08/21 00:15:11;;;;;;;4.83;3.60;;;18.70;99.90;;;;;;5075656;28;20449;-56
2022/08/21 00:17:38;;;;;;;4.57;2.90;;;18.70;99.90;;;;;;5075200;28;20856;-56
2022/08/21 00:20:08;;;;;;;4.40;3.20;;;18.80;99.90;;;;;;5075007;28;20449;-56
2022/08/21 00:22:35;;;;;;;5.30;3.67;;;18.70;99.90;;;;;;5075401;28;20452;-56
2022/08/21 00:25:03;;;;;;;4.83;3.20;;;18.60;99.90;;;;;;5074818;28;20943;-56
2022/08/21 00:27:30;;;;;;;5.33;4.00;;;18.50;99.90;;;;;;5074818;28;20425;-57
2022/08/21 00:29:59;;;;;;;6.90;3.50;;;18.50;99.90;;;;;;5074670;28;21030;-56
2022/08/21 00:32:28;;;;;;;2.90;2.60;;;18.40;99.90;;;;;;5074989;28;20460;-57
2022/08/21 00:34:55;;;;;;;5.80;2.90;;;18.30;99.90;;;;;;5074738;28;20444;-56
2022/08/21 00:37:23;;;;;;;5.73;3.20;;;18.30;99.90;;;;;;5074471;28;20456;-56
2022/08/21 00:39:51;;;;;;;7.53;4.40;;;18.60;99.90;;;;;;5074900;28;20548;-56
2022/08/21 00:42:19;;;;;;;4.77;3.17;;;18.60;99.90;;;;;;5074491;28;20508;-56
2022/08/21 00:44:49;;;;;;;5.97;4.00;;;18.60;99.90;;;;;;5074670;28;20469;-56
2022/08/21 00:47:19;;;;;;;6.70;3.50;;;18.50;99.90;;;;;;5074930;28;20517;-57
2022/08/21 00:49:46;;;;;;;7.53;3.60;;;18.50;99.90;;;;;;5074204;28;20536;-56
2022/08/21 00:52:19;;;;;;;4.23;3.67;;;18.60;99.90;;;;;;5074138;28;20472;-56
2022/08/21 00:54:47;;;;;;;4.33;2.70;;;18.50;99.90;;;;;;5074086;28;20432;-56
2022/08/21 00:57:19;;;;;;;5.00;3.60;;;18.60;99.90;;;;;;5074515;28;20452;-56
2022/08/21 00:59:49;;;;;;;3.47;2.90;;;18.40;99.90;;;;;;5074054;28;20443;-56
2022/08/21 01:02:19;;;;;;;4.03;3.20;;;18.20;99.90;;;;;;5073892;28;20468;-56
2022/08/21 01:04:47;;;;;;;4.60;2.97;;;18.10;99.90;;;;;;5074342;28;20491;-56
2022/08/21 01:07:14;;;;;;;6.10;3.33;;;18.00;99.90;;;;;;5074514;28;20449;-56
2022/08/21 01:09:43;;;;;;;6.77;3.37;;;18.00;99.90;;;;;;5074143;28;20472;-56
2022/08/21 01:12:11;;;;;;;6.33;3.47;;;18.10;99.90;;;;;;5073778;28;20567;-56
2022/08/21 01:14:38;;;;;;;4.90;3.37;;;18.30;99.90;;;;;;5074183;28;20849;-56
2022/08/21 01:17:07;;;;;;;4.83;3.37;;;18.30;99.90;;;;;;5073625;28;20452;-56
2022/08/21 01:19:35;;;;;;;4.10;3.53;;;18.20;99.90;;;;;;5073672;28;20531;-56
2022/08/21 01:22:04;;;;;;;9.20;4.10;;;18.30;99.90;;;;;;5073892;28;20864;-57
2022/08/21 01:24:32;;;;;;;10.00;4.00;;;18.30;99.90;;;;;;5073628;28;20563;-56
2022/08/21 01:27:00;;;;;;;5.20;3.50;;;18.20;99.90;;;;;;5073544;28;20452;-57
2022/08/21 01:29:33;;;;;;;4.97;3.40;;;18.00;99.90;;;;;;5073939;28;20475;-56
2022/08/21 01:32:04;;;;;;;4.17;3.77;;;18.10;99.90;;;;;;5073878;28;20551;-56
2022/08/21 01:34:31;;;;;;;4.27;3.60;;;18.20;99.90;;;;;;5073768;28;20530;-56
2022/08/21 01:36:58;;;;;;;5.10;4.10;;;18.20;99.90;;;;;;5073692;28;20448;-56
2022/08/21 01:39:27;;;;;;;7.50;4.27;;;18.20;99.90;;;;;;5073483;28;20452;-56
2022/08/21 01:41:54;;;;;;;3.80;3.40;;;18.20;99.90;;;;;;5073213;28;20481;-57
2022/08/21 01:44:22;;;;;;;4.13;3.30;;;18.20;99.90;;;;;;5072701;28;20527;-57
2022/08/21 01:46:53;;;;;;;4.67;4.17;;;18.10;99.90;;;;;;5073409;28;20971;-56
2022/08/21 01:49:21;;;;;;;6.30;3.80;;;17.90;99.90;;;;;;5073341;28;20428;-56
2022/08/21 01:51:48;;;;;;;4.67;4.00;;;17.80;99.90;;;;;;5073140;28;20507;-57
2022/08/21 01:54:15;;;;;;;4.30;3.60;;;17.90;99.90;;;;;;5073229;28;20451;-56
2022/08/21 01:56:47;;;;;;;4.10;3.70;;;17.90;99.90;;;;;;5073460;28;20447;-57
2022/08/21 01:59:15;;;;;;;6.77;4.13;;;17.80;99.90;;;;;;5073196;28;20914;-57
2022/08/21 02:01:43;;;;;;;4.30;3.87;;;17.80;99.90;;;;;;5073338;28;20468;-56
2022/08/21 02:04:11;;;;;;;4.60;3.27;;;17.80;99.90;;;;;;5073470;28;20574;-56
2022/08/21 02:06:39;;;;;;;4.20;3.30;;;17.90;99.90;;;;;;5073045;28;20444;-56
2022/08/21 02:09:08;;;;;;;4.73;3.60;;;18.00;99.90;;;;;;5072997;28;20543;-56
2022/08/21 02:11:36;;;;;;;3.37;3.10;;;18.00;99.90;;;;;;5073441;28;20476;-57
2022/08/21 02:14:04;;;;;;;4.30;3.80;;;17.90;99.90;;;;;;5072900;28;20455;-56
2022/08/21 02:16:32;;;;;;;4.93;4.10;;;17.90;99.90;;;;;;5073203;28;20527;-56
2022/08/21 02:18:59;;;;;;;4.43;3.87;;;17.90;99.90;;;;;;5073026;28;20903;-56
2022/08/21 02:21:26;;;;;;;7.37;3.80;;;17.90;99.90;;;;;;5073150;28;20465;-56
2022/08/21 02:23:53;;;;;;;7.33;3.60;;;17.90;99.90;;;;;;5072760;28;20990;-56
2022/08/21 02:26:20;;;;;;;6.47;4.30;;;17.70;99.90;;;;;;5073277;28;20547;-57
2022/08/21 02:28:47;;;;;;;3.83;3.43;;;17.60;99.90;;;;;;5074005;28;20436;-57
2022/08/21 02:31:16;;;;;;;4.17;3.40;;;17.60;99.90;;;;;;5077115;28;20511;-57
2022/08/21 02:33:44;;;;;;;5.57;3.70;;;17.50;99.90;;;;;;5076969;28;21018;-57
2022/08/21 02:36:12;;;;;;;3.63;2.97;;;17.50;99.90;;;;;;5076909;28;20835;-57
2022/08/21 02:38:42;;;;;;;7.50;4.13;;;17.40;99.90;;;;;;5077053;28;20813;-56
2022/08/21 02:41:12;;;;;;;4.40;3.53;;;17.60;99.90;;;;;;5076968;28;20471;-56
2022/08/21 02:43:40;;;;;;;3.73;3.43;;;17.60;99.90;;;;;;5076559;28;20482;-56
2022/08/21 02:46:08;;;;;;;4.53;3.43;;;17.60;99.90;;;;;;5076541;28;20925;-56
2022/08/21 02:48:37;;;;;;;9.03;3.60;;;17.60;99.90;;;;;;5077003;28;20531;-57
2022/08/21 02:51:06;;;;;;;4.00;3.60;;;17.50;99.90;;;;;;5076868;28;20602;-56
2022/08/21 02:53:34;;;;;;;4.00;3.40;;;17.40;99.90;;;;;;5076695;28;20444;-56
2022/08/21 02:56:04;;;;;;;4.80;3.70;;;17.20;99.90;;;;;;5076399;28;21005;-57
2022/08/21 02:58:38;;;;;;;6.03;3.60;;;17.10;99.90;;;;;;5076314;28;20963;-56
2022/08/21 03:01:09;;;;;;;3.90;3.50;;;17.10;99.90;;;;;;5076406;28;20480;-56
2022/08/21 03:03:39;;;;;;;4.80;3.47;;;17.30;99.90;;;;;;5076311;28;20515;-57
2022/08/21 03:06:08;;;;;;;3.57;3.27;;;17.50;99.90;;;;;;5076122;28;20579;-57
2022/08/21 03:08:35;;;;;;;3.93;3.60;;;17.60;99.90;;;;;;5076151;28;20940;-57
2022/08/21 03:11:02;;;;;;;9.40;3.93;;;17.50;99.90;;;;;;5076341;28;20567;-56
2022/08/21 03:13:30;;;;;;;5.50;3.80;;;17.30;99.90;;;;;;5076087;28;20712;-57
2022/08/21 03:15:57;;;;;;;4.87;3.93;;;17.20;99.90;;;;;;5076451;28;20469;-57
2022/08/21 03:18:24;;;;;;;5.67;4.30;;;17.30;99.90;;;;;;5076413;28;20448;-56
2022/08/21 03:20:53;;;;;;;9.40;4.03;;;17.30;99.90;;;;;;5075897;28;20546;-56
2022/08/21 03:23:20;;;;;;;4.20;3.80;;;17.10;99.90;;;;;;5076175;28;20444;-56
2022/08/21 03:25:50;;;;;;;5.17;3.97;;;17.10;99.90;;;;;;5075898;28;20482;-57
2022/08/21 03:28:20;;;;;;;5.80;4.40;;;17.00;99.90;;;;;;5076124;28;20448;-57
2022/08/21 03:30:50;;;;;;;7.30;3.90;;;17.00;99.90;;;;;;5075885;28;20467;-57
2022/08/21 03:33:18;;;;;;;4.20;3.80;;;16.90;99.90;;;;;;5076161;28;20797;-57
2022/08/21 03:35:48;;;;;;;3.87;3.57;;;16.80;99.90;;;;;;5075814;28;21022;-56
2022/08/21 03:38:17;;;;;;;4.63;4.20;;;16.80;99.90;;;;;;5075987;28;20439;-57
2022/08/21 03:40:45;;;;;;;5.50;3.70;;;16.90;99.90;;;;;;5074195;28;20516;-57
2022/08/21 03:43:12;;;;;;;5.47;3.60;;;16.80;99.90;;;;;;5075717;28;20480;-56
2022/08/21 03:45:40;;;;;;;6.70;4.17;;;16.90;99.90;;;;;;5075451;28;21063;-56
2022/08/21 03:48:08;;;;;;;4.10;3.70;;;17.00;99.90;;;;;;5075527;28;20448;-56
2022/08/21 03:50:39;;;;;;;5.87;4.07;;;17.00;99.90;;;;;;5075584;28;20464;-56
2022/08/21 03:53:06;;;;;;;6.37;3.97;;;17.10;99.90;;;;;;5075729;28;20519;-57
2022/08/21 03:55:35;;;;;;;7.37;3.90;;;17.10;99.90;;;;;;5075269;28;20440;-56
2022/08/21 03:58:03;;;;;;;4.20;3.60;;;17.00;99.90;;;;;;5075668;28;20444;-57
2022/08/21 04:00:30;;;;;;;4.00;3.60;;;16.90;99.90;;;;;;5075617;28;20802;-57
2022/08/21 04:02:57;;;;;;;5.20;3.57;;;16.90;99.90;;;;;;5075507;28;20455;-56
2022/08/21 04:05:30;;;;;;;6.80;4.30;;;16.70;99.90;;;;;;5075444;28;20484;-57
2022/08/21 04:07:59;;;;;;;4.17;3.77;;;16.70;99.90;;;;;;5075558;28;20429;-57
2022/08/21 04:10:27;;;;;;;4.50;4.10;;;16.70;99.90;;;;;;5074923;28;20475;-56
2022/08/21 04:12:56;;;;;;;5.10;3.80;;;16.60;99.90;;;;;;5075319;28;20420;-58
2022/08/21 04:15:25;;;;;;;6.33;4.37;;;16.50;99.90;;;;;;5075405;28;20444;-57
2022/08/21 04:17:53;;;;;;;4.50;3.90;;;16.50;99.90;;;;;;5075201;28;20448;-57
2022/08/21 04:20:21;;;;;;;5.40;4.80;;;16.40;99.90;;;;;;5074797;28;20472;-57
2022/08/21 04:22:50;;;;;;;6.20;4.20;;;16.40;99.90;;;;;;5074892;28;20487;-58
2022/08/21 04:25:19;;;;;;;4.00;3.40;;;16.40;99.90;;;;;;5074612;28;20480;-57
2022/08/21 04:27:46;;;;;;;4.47;4.03;;;16.40;99.90;;;;;;5074720;28;21041;-56
2022/08/21 04:30:16;;;;;;;4.80;3.63;;;16.50;99.90;;;;;;5074930;28;20444;-57
2022/08/21 04:32:44;;;;;;;7.80;3.90;;;16.60;99.90;;;;;;5074758;28;20535;-57
2022/08/21 04:35:14;;;;;;;4.77;3.23;;;16.70;99.90;;;;;;5074615;28;20499;-57
2022/08/21 04:37:41;;;;;;;8.40;4.37;;;16.80;99.90;;;;;;5074786;28;20470;-57
2022/08/21 04:40:10;;;;;;;4.47;3.60;;;16.60;99.90;;;;;;5074680;28;20480;-56
2022/08/21 04:42:44;;;;;;;4.87;4.20;;;16.40;99.90;;;;;;5073159;28;20476;-56
2022/08/21 04:45:17;;;;;;;5.00;3.50;;;16.40;99.90;;;;;;5074339;28;20474;-60
2022/08/21 04:47:44;;;;;;;5.40;3.93;;;16.50;99.90;;;;;;5074607;28;20443;-57
2022/08/21 04:50:11;;;;;;;6.77;3.57;;;16.50;99.90;;;;;;5074224;28;20954;-57
2022/08/21 04:52:38;;;;;;;5.03;3.90;;;16.50;99.90;;;;;;5073842;28;20539;-56
2022/08/21 04:55:07;;;;;;;4.63;3.63;;;16.50;99.90;;;;;;5074151;28;20469;-56
2022/08/21 04:57:35;;;;;;;5.53;3.97;;;16.50;99.90;;;;;;5074391;28;20456;-57
2022/08/21 05:00:04;;;;;;;4.60;4.10;;;16.60;99.90;;;;;;5073995;28;20453;-57
2022/08/21 05:02:33;;;;;;;5.33;3.23;;;16.80;99.90;;;;;;5074321;28;20456;-56
2022/08/21 05:05:01;;;;;;;4.70;4.30;;;16.80;99.90;;;;;;5074152;28;20529;-57
2022/08/21 05:07:32;;;;;;;4.00;3.70;;;16.80;99.90;;;;;;5074369;28;20524;-57
2022/08/21 05:10:01;;;;;;;5.20;4.00;;;17.00;99.90;;;;;;5074119;28;20447;-57
2022/08/21 05:12:28;;;;;;;6.90;4.57;;;17.00;99.90;;;;;;5074370;28;20551;-57
2022/08/21 05:14:55;;;;;;;7.37;4.80;;;17.00;99.90;;;;;;5073922;28;20445;-56
2022/08/21 05:17:23;;;;;;;7.13;4.13;;;17.00;99.90;;;;;;5073994;28;20470;-57
2022/08/21 05:19:52;;;;;;;3.97;3.50;;;17.10;99.90;;;;;;5073992;28;20890;-57
2022/08/21 05:22:24;;;;;;;4.50;4.03;;;17.00;99.90;;;;;;5073650;28;20468;-57
2022/08/21 05:24:52;;;;;;;4.80;4.00;;;17.10;99.90;;;;;;5073495;28;20455;-57
2022/08/21 05:27:19;;;;;;;4.83;4.07;;;17.10;99.90;;;;;;5073464;28;20459;-57
2022/08/21 05:29:46;;;;;;;4.33;3.80;;;17.10;99.90;;;;;;5073530;28;20450;-57
2022/08/21 05:32:14;;;;;;;5.40;4.07;;;17.10;99.90;;;;;;5073828;28;20471;-56
2022/08/21 05:34:41;;;;;;;5.40;4.50;;;17.10;99.90;;;;;;5073430;28;20489;-56
2022/08/21 05:37:12;;;;;;;4.20;3.80;;;17.20;99.90;;;;;;5073382;28;20450;-56
2022/08/21 05:39:39;;;;;;;6.80;3.50;;;17.20;99.90;;;;;;5073720;28;20440;-56
2022/08/21 05:42:06;;;;;;;5.33;3.90;;;17.30;99.90;;;;;;5073278;28;20475;-57
2022/08/21 05:44:33;;;;;;;8.80;3.60;;;17.40;99.90;;;;;;5073153;28;20567;-57
2022/08/21 05:47:04;;;;;;;8.23;4.60;;;17.40;99.90;;;;;;5073338;28;20571;-57
2022/08/21 05:49:32;;;;;;;5.13;4.17;;;17.50;99.90;;;;;;5073612;28;20508;-57
2022/08/21 05:51:59;;;;;;;5.13;4.07;;;17.50;99.90;;;;;;5073436;28;20504;-56
2022/08/21 05:54:28;;;;;;;4.30;3.70;;;17.60;99.90;;;;;;5073539;28;20472;-56
2022/08/21 05:56:55;;;;;;;4.67;4.27;;;17.60;99.90;;;;;;5073175;28;20437;-56
2022/08/21 05:59:22;;;;;;;4.60;4.10;;;17.70;99.90;;;;;;5073142;28;20445;-57
2022/08/21 06:01:52;;;;;;;5.00;4.30;;;17.70;99.90;;;;;;5073428;28;20464;-57
2022/08/21 06:04:19;;;;;;;4.80;4.13;;;17.70;99.90;;;;;;5072470;28;20539;-57
2022/08/21 06:06:47;;;;;;;10.27;4.10;;;17.80;99.90;;;;;;5073324;28;20763;-57
2022/08/21 06:09:14;;;;;;;5.17;4.00;;;17.90;99.90;;;;;;5073027;28;20451;-57
2022/08/21 06:11:43;;;;;;;4.60;4.00;;;18.00;99.90;;;;;;5073569;28;20533;-56
2022/08/21 06:14:10;;;;;;;4.13;3.73;;;18.00;99.90;;;;;;5073308;28;20522;-57
2022/08/21 06:16:37;;;;;;;10.17;4.60;;;18.10;99.90;;;;;;5072964;28;20957;-56
2022/08/21 06:19:04;;;;;;;5.57;3.40;;;18.10;99.90;;;;;;5073058;28;20807;-57
2022/08/21 06:21:31;;;;;;;7.40;4.07;;;18.10;99.90;;;;;;5072887;28;20468;-57
2022/08/21 06:23:59;;;;;;;4.23;3.90;;;18.30;99.90;;;;;;5072967;28;20443;-57
2022/08/21 06:26:26;;;;;;;5.90;4.30;;;18.30;99.90;;;;;;5073171;28;20566;-56
2022/08/21 06:28:55;;;;;;;3.80;3.50;;;18.30;99.90;;;;;;5073167;28;20445;-56
2022/08/21 06:31:24;;;;;;;6.03;4.30;;;18.50;99.90;;;;;;5072780;28;20966;-57
2022/08/21 06:33:51;;;;;;;7.00;4.03;;;18.60;99.90;;;;;;5072950;28;20497;-57
2022/08/21 06:36:20;;;;;;;8.63;4.10;;;18.80;99.90;;;;;;5072823;28;20946;-57
2022/08/21 06:38:48;;;;;;;5.47;3.73;;;18.90;99.90;;;;;;5073047;28;20543;-57
2022/08/21 06:41:15;;;;;;;4.13;3.83;;;19.00;99.90;;;;;;5072904;28;20963;-57
2022/08/21 06:43:42;;;;;;;4.90;4.03;;;19.20;99.90;;;;;;5072791;28;20836;-56
2022/08/21 06:46:10;;;;;;;7.07;3.80;;;19.50;99.90;;;;;;5072567;28;21441;-57
2022/08/21 06:48:38;;;;;;;4.40;3.90;;;19.50;99.90;;;;;;5072921;28;20543;-56
2022/08/21 06:51:05;;;;;;;6.83;4.47;;;19.50;99.90;;;;;;5072651;28;20468;-57
2022/08/21 06:53:33;;;;;;;5.53;3.97;;;19.60;99.90;;;;;;5072549;28;20452;-57
2022/08/21 06:56:01;;;;;;;7.53;4.80;;;19.70;99.90;;;;;;5072382;28;20479;-56
2022/08/21 06:58:28;;;;;;;4.00;3.60;;;19.70;99.90;;;;;;5072647;28;20535;-56
2022/08/21 07:00:56;;;;;;;8.20;3.97;;;19.80;99.90;;;;;;5072793;28;20468;-56
2022/08/21 07:03:27;;;;;;;8.10;4.73;;;19.80;99.90;;;;;;5072572;28;20544;-56
2022/08/21 07:05:54;;;;;;;14.43;4.30;;;19.80;99.90;;;;;;5073211;28;20471;-57
2022/08/21 07:08:22;;;;;;;6.20;3.50;;;19.90;99.90;;;;;;5072468;28;20448;-56
2022/08/21 07:10:50;;;;;;;4.50;4.10;;;20.20;99.90;;;;;;5072717;28;20504;-56
2022/08/21 07:13:17;;;;;;;4.63;3.67;;;20.20;99.90;;;;;;5072829;28;20444;-56
2022/08/21 07:15:45;;;;;;;6.33;4.13;;;20.30;99.90;;;;;;5075245;28;20786;-56
2022/08/21 07:18:12;;;;;;;5.50;3.60;;;20.40;99.90;;;;;;5076041;28;20455;-56
2022/08/21 07:20:42;;;;;;;5.03;4.17;;;20.60;99.90;;;;;;5076224;28;20564;-56
2022/08/21 07:23:13;;;;;;;8.50;3.40;;;20.70;99.90;;;;;;5076290;28;20494;-56
2022/08/21 07:25:40;;;;;;;4.70;4.07;;;20.70;99.90;;;;;;5075982;28;20454;-57
2022/08/21 07:28:08;;;;;;;4.77;3.80;;;20.80;99.90;;;;;;5076033;28;20555;-56
2022/08/21 07:30:35;;;;;;;5.27;3.93;;;20.80;99.90;;;;;;5076185;28;20467;-57
2022/08/21 07:33:02;;;;;;;5.30;4.00;;;21.00;99.90;;;;;;5076069;28;20470;-57
2022/08/21 07:35:31;;;;;;;5.80;4.30;;;20.80;99.90;;;;;;5075699;28;20436;-56
2022/08/21 07:37:59;;;;;;;4.00;3.23;;;20.70;99.90;;;;;;5075778;28;20996;-57
2022/08/21 07:40:26;;;;;;;9.50;4.70;;;20.90;99.90;;;;;;5075775;28;20476;-56
2022/08/21 07:42:54;;;;;;;5.00;4.23;;;21.00;99.90;;;;;;5075565;28;20547;-56
2022/08/21 07:45:22;;;;;;;11.07;4.20;;;21.10;99.90;;;;;;5076023;28;20448;-57
2022/08/21 07:47:49;;;;;;;7.20;4.40;;;21.00;99.90;;;;;;5075684;28;20480;-57
2022/08/21 07:50:17;;;;;;;5.93;4.07;;;21.10;99.90;;;;;;5075593;28;20472;-57
2022/08/21 07:52:44;;;;;;;11.93;4.93;;;21.20;99.90;;;;;;5075830;28;20468;-56
2022/08/21 07:55:16;;;;;;;5.33;4.10;;;21.40;99.90;;;;;;5075688;28;20531;-56
2022/08/21 07:57:44;;;;;;;4.60;4.00;;;21.40;99.90;;;;;;5075607;28;20829;-56
2022/08/21 08:00:14;;;;;;;4.87;4.03;;;21.50;99.90;;;;;;5075461;28;20506;-57
2022/08/21 08:02:42;;;;;;;4.70;4.13;;;21.50;99.90;;;;;;5075486;28;20532;-56
2022/08/21 08:05:11;;;;;;;6.23;3.70;;;21.50;99.90;;;;;;5075415;28;20452;-56
2022/08/21 08:07:39;;;;;;;4.20;3.80;;;21.80;99.90;;;;;;5075047;28;20488;-56
2022/08/21 08:10:07;;;;;;;6.00;4.20;;;21.90;99.90;;;;;;5075380;28;20452;-56
2022/08/21 08:12:37;;;;;;;5.67;3.80;;;22.00;99.90;;;;;;5075335;28;20444;-56
2022/08/21 08:15:05;;;;;;;8.03;4.60;;;22.00;99.90;;;;;;5074942;28;20448;-57
2022/08/21 08:17:33;;;;;;;5.23;4.40;;;22.20;99.90;;;;;;5074928;28;20904;-56
2022/08/21 08:20:00;;;;;;;6.30;4.40;;;22.50;99.90;;;;;;5075263;28;20456;-56
2022/08/21 08:22:28;;;;;;;4.57;2.93;;;23.20;99.90;;;;;;5075150;28;20455;-56
2022/08/21 08:24:56;;;;;;;8.27;4.40;;;24.30;99.40;;;;;;5074742;28;20455;-56
2022/08/21 08:27:23;;;;;;;3.87;3.57;;;25.20;97.80;;;;;;5074418;28;20480;-57
2022/08/21 08:29:52;;;;;;;4.40;3.53;;;26.10;96.60;;;;;;5075002;28;20451;-56
2022/08/21 08:32:19;;;;;;;4.83;3.67;;;26.70;94.70;;;;;;5074908;28;20507;-57
2022/08/21 08:34:48;;;;;;;4.80;3.80;;;26.70;93.80;;;;;;5074997;28;20448;-56
2022/08/21 08:37:16;;;;;;;6.20;4.57;;;27.40;92.90;;;;;;5074747;28;20444;-57
2022/08/21 08:39:43;;;;;;;4.23;3.90;;;27.50;92.20;;;;;;5074619;28;20858;-56
2022/08/21 08:42:15;;;;;;;5.37;4.40;;;27.20;91.10;;;;;;5074943;28;20456;-57
2022/08/21 08:44:43;;;;;;;5.67;4.07;;;27.20;90.90;;;;;;5074548;28;20431;-56
2022/08/21 08:47:13;;;;;;;5.63;4.10;;;27.20;90.30;;;;;;5074571;28;20498;-57
2022/08/21 08:49:48;;;;;;;6.70;4.00;;;27.40;90.40;;;;;;5074498;28;20771;-56
2022/08/21 08:52:21;;;;;;;5.07;3.60;;;28.10;89.20;;;;;;5074254;28;21085;-56
2022/08/21 08:54:57;;;;;;;4.43;4.03;;;28.20;87.40;;;;;;5074186;28;20523;-56
2022/08/21 08:57:26;;;;;;;6.70;3.70;;;28.10;86.50;;;;;;5072913;28;20474;-56
2022/08/21 08:59:59;;;;;;;4.63;3.00;;;28.10;87.90;;;;;;5074458;28;20478;-56
2022/08/21 09:02:28;;;;;;;5.43;4.10;;;28.60;85.50;;;;;;5074065;28;20424;-56
2022/08/21 09:05:01;;;;;;;8.30;4.07;;;28.60;83.50;;;;;;5074372;28;20533;-58
2022/08/21 09:07:37;;;;;;;4.70;4.13;;;28.30;80.60;;;;;;5074177;28;20475;-57
2022/08/21 09:10:14;;;;;;;7.63;3.77;;;28.50;79.90;;;;;;5074172;28;20444;-55
2022/08/21 09:12:51;;;;;;;6.43;4.10;;;29.30;79.60;;;;;;5073912;28;20431;-56
2022/08/21 09:15:27;;;;;;;4.57;4.03;;;29.20;76.00;;;;;;5074060;28;20443;-55
2022/08/21 09:18:18;;;;;;;5.30;3.53;;;29.50;76.80;;;;;;5073901;28;20424;-55
2022/08/21 09:20:57;;;;;;;6.43;4.00;;;29.70;76.60;;;;;;5073729;28;20967;-56
2022/08/21 09:23:35;;;;;;;6.77;4.20;;;30.20;74.00;;;;;;5073679;28;21026;-56
2022/08/21 09:26:08;;;;;;;4.73;3.83;;;30.50;72.00;;;;;;5073551;28;20424;-55
2022/08/21 09:28:36;;;;;;;6.07;3.63;;;30.80;69.90;;;;;;5073931;28;20463;-55
2022/08/21 09:31:07;;;;;;;7.80;4.00;;;30.40;69.10;;;;;;5073812;28;20465;-56
2022/08/21 09:33:35;;;;;;;8.00;3.87;;;30.90;68.20;;;;;;5073871;28;20428;-55
2022/08/21 09:36:03;;;;;;;5.40;4.53;;;30.60;66.50;;;;;;5073485;28;20539;-57
2022/08/21 09:38:33;;;;;;;6.67;4.10;;;30.80;66.70;;;;;;5072812;28;20480;-56
2022/08/21 09:41:04;;;;;;;4.40;3.80;;;31.10;64.80;;;;;;5073337;28;20962;-56
2022/08/21 09:43:32;;;;;;;5.10;4.60;;;30.70;65.10;;;;;;5073254;28;20595;-56
2022/08/21 09:46:09;;;;;;;5.30;4.20;;;30.80;65.00;;;;;;5073270;28;20991;-56
2022/08/21 09:48:47;;;;;;;4.57;3.47;;;31.30;62.50;;;;;;5073351;28;20443;-56
2022/08/21 09:51:18;;;;;;;10.50;4.77;;;30.90;62.40;;;;;;5073389;28;20492;-56
2022/08/21 09:53:49;;;;;;;6.93;5.03;;;31.10;63.30;;;;;;5073510;28;20540;-55
2022/08/21 09:59:00;;;;;;;8.67;4.33;;;30.80;81.80;;;;;;5039807;28;20463;-55
2022/08/21 10:01:28;;;;;;;7.37;4.10;;;30.90;60.80;;;;;;5073361;28;20579;-56
2022/08/21 10:04:05;;;;;;;7.40;4.00;;;31.60;60.00;;;;;;5073033;28;20444;-56
2022/08/21 10:06:34;;;;;;;4.90;3.90;;;31.70;60.20;;;;;;5073412;28;20511;-56
2022/08/21 10:09:07;;;;;;;5.43;4.13;;;31.50;59.70;;;;;;5073429;28;20452;-56
2022/08/21 10:11:40;;;;;;;9.83;4.40;;;31.20;59.70;;;;;;5073248;28;20476;-56
2022/08/21 10:14:18;;;;;;;11.57;4.30;;;31.00;59.50;;;;;;5072915;28;20440;-56
2022/08/21 10:16:56;;;;;;;5.57;4.43;;;30.80;59.90;;;;;;5072973;28;20519;-56
2022/08/21 10:19:32;;;;;;;7.30;4.60;;;31.60;60.10;;;;;;5073419;28;20500;-56
2022/08/21 10:22:07;;;;;;;4.80;4.40;;;31.70;59.20;;;;;;5073261;28;20468;-56
2022/08/21 10:24:44;;;;;;;6.60;3.87;;;31.90;58.80;;;;;;5072908;28;20488;-56
2022/08/21 10:27:21;;;;;;;5.93;3.80;;;32.00;58.60;;;;;;5072100;28;20818;-56
2022/08/21 10:29:56;;;;;;;7.07;4.13;;;32.10;58.20;;;;;;5073087;28;20441;-56
2022/08/21 10:32:48;;;;;;;5.10;3.93;;;31.20;59.30;;;;;;5072979;28;20420;-56
2022/08/21 10:35:23;;;;;;;5.60;4.30;;;31.70;58.80;;;;;;5073151;28;20433;-56
2022/08/21 10:38:03;;;;;;;9.00;3.97;;;31.80;57.20;;;;;;5072797;28;20424;-57
2022/08/21 10:40:38;;;;;;;4.43;4.03;;;31.30;57.20;;;;;;5072720;28;20500;-56
2022/08/21 10:43:16;;;;;;;4.53;4.03;;;31.40;58.00;;;;;;5072671;28;20907;-56
2022/08/21 10:45:57;;;;;;;8.30;3.67;;;32.10;57.60;;;;;;5072871;28;20428;-56
2022/08/21 10:48:30;;;;;;;6.03;3.97;;;32.10;57.00;;;;;;5072708;28;20468;-56
2022/08/21 10:51:06;;;;;;;5.43;3.90;;;32.10;55.90;;;;;;5075959;28;20468;-56
2022/08/21 10:53:51;;;;;;;5.10;3.97;;;31.70;56.00;;;;;;5076830;28;20468;-56
2022/08/21 10:56:22;;;;;;;6.40;4.70;;;31.00;56.30;;;;;;5076837;28;20511;-57
2022/08/21 10:59:03;;;;;;;3.83;3.43;;;31.40;56.60;;;;;;5075467;28;20935;-57
2022/08/21 11:01:35;;;;;;;6.70;3.87;;;31.90;56.00;;;;;;5076743;28;20476;-57
2022/08/21 11:04:12;;;;;;;6.30;4.13;;;32.00;55.50;;;;;;5076678;28;20831;-56
2022/08/21 11:06:46;;;;;;;6.60;4.20;;;31.40;56.20;;;;;;5076284;28;20515;-59
2022/08/21 11:09:17;;;;;;;4.10;3.70;;;31.60;55.30;;;;;;5076244;28;20432;-57
2022/08/21 11:11:51;;;;;;;5.40;3.80;;;32.30;56.20;;;;;;5076424;28;20476;-57
2022/08/21 11:14:25;;;;;;;6.50;4.57;;;32.30;55.30;;;;;;5076582;28;20428;-56
2022/08/21 11:16:59;;;;;;;6.03;4.17;;;31.90;55.00;;;;;;5076476;28;20426;-56
2022/08/21 11:19:31;;;;;;;4.90;3.77;;;32.20;55.00;;;;;;5076109;28;20523;-56
2022/08/21 11:22:09;;;;;;;5.73;4.73;;;32.50;55.20;;;;;;5075944;28;20474;-57
2022/08/21 11:24:44;;;;;;;5.57;4.40;;;32.70;54.80;;;;;;5076205;28;20428;-57
2022/08/21 11:27:20;;;;;;;4.70;3.97;;;31.90;54.90;;;;;;5076048;28;20525;-56
2022/08/21 11:29:51;;;;;;;5.63;4.10;;;31.20;55.50;;;;;;5076208;28;20435;-57
2022/08/21 11:32:58;;;;;;;6.77;3.93;;;31.80;55.50;;;;;;5075809;28;20543;-57
2022/08/21 11:35:35;;;;;;;5.03;3.73;;;32.00;54.60;;;;;;5045560;28;20532;-57
2022/08/21 11:38:27;;;;;;;6.90;4.30;;;32.40;55.40;;;;;;5075801;28;20420;-57
2022/08/21 11:41:07;;;;;;;7.63;3.83;;;32.60;53.90;;;;;;5075893;28;20472;-58
2022/08/21 11:43:40;;;;;;;5.60;4.50;;;32.90;54.80;;;;;;5075615;28;20480;-57
2022/08/21 11:46:25;;;;;;;5.67;4.07;;;32.50;54.00;;;;;;5075908;28;20416;-57
2022/08/21 11:49:17;;;;;;;3.57;3.20;;;32.20;54.60;;;;;;5075408;28;20479;-57
2022/08/21 11:51:49;;;;;;;3.97;3.47;;;32.20;54.80;;;;;;5075868;28;20551;-56
2022/08/21 11:54:36;;;;;;;6.07;4.43;;;32.50;53.70;;;;;;5075682;28;20829;-57
2022/08/21 11:57:09;;;;;;;5.60;3.90;;;32.00;54.20;;;;;;5075615;28;20451;-57
2022/08/21 11:59:41;;;;;;;5.17;4.07;;;32.10;54.50;;;;;;5075601;28;20424;-56
2022/08/21 12:02:14;;;;;;;9.90;4.10;;;32.00;53.90;;;;;;5074459;28;20457;-57
2022/08/21 12:04:49;;;;;;;4.70;3.60;;;32.20;53.70;;;;;;5075659;28;20429;-57
2022/08/21 12:07:29;;;;;;;5.50;4.23;;;31.60;53.80;;;;;;5075445;28;20464;-57
2022/08/21 12:09:59;;;;;;;7.93;4.13;;;31.10;54.00;;;;;;5075333;28;20555;-57
2022/08/21 12:12:29;;;;;;;5.37;4.13;;;31.50;53.40;;;;;;5075610;28;20453;-57
2022/08/21 12:15:17;;;;;;;7.23;3.93;;;31.50;53.10;;;;;;5074958;28;20927;-57
2022/08/21 12:18:00;;;;;;;5.70;4.23;;;31.70;53.50;;;;;;5074954;28;20425;-57
2022/08/21 12:20:38;;;;;;;5.13;4.63;;;32.30;53.10;;;;;;5075126;28;20497;-57
2022/08/21 12:23:17;;;;;;;3.90;3.60;;;32.40;52.50;;;;;;5074977;28;20953;-57
2022/08/21 12:25:49;;;;;;;5.27;4.67;;;32.20;52.70;;;;;;5075188;28;20435;-57
2022/08/21 12:28:24;;;;;;;6.30;4.40;;;32.40;52.40;;;;;;5074927;28;20551;-57
2022/08/21 12:30:51;;;;;;;4.53;3.67;;;32.20;52.50;;;;;;5074988;28;20550;-57
2022/08/21 12:33:26;;;;;;;6.13;4.40;;;32.10;52.70;;;;;;5074976;28;20475;-57
2022/08/21 12:36:02;;;;;;;4.07;3.57;;;31.80;53.00;;;;;;5074967;28;20428;-57
2022/08/21 12:38:33;;;;;;;6.00;4.40;;;32.30;53.00;;;;;;5075027;28;20426;-57
2022/08/21 12:41:05;;;;;;;5.77;4.17;;;32.40;52.30;;;;;;5074706;28;20483;-57
2022/08/21 12:43:38;;;;;;;5.23;4.00;;;32.10;52.10;;;;;;5074308;28;20472;-57
2022/08/21 12:46:06;;;;;;;5.03;4.13;;;32.40;53.00;;;;;;5074707;28;20439;-57
2022/08/21 12:48:34;;;;;;;5.00;3.87;;;;;;;;;;5074618;28;20520;-57
2022/08/21 12:51:10;;;;;;;6.20;3.60;;;31.50;52.10;;;;;;5074131;28;20842;-57
2022/08/21 12:53:42;;;;;;;5.90;4.30;;;;;;;;;;5074475;28;20435;-56
2022/08/21 12:56:13;;;;;;;4.70;4.17;;;30.20;53.10;;;;;;5074428;28;20452;-56
2022/08/21 12:58:45;;;;;;;7.03;4.17;;;30.80;53.20;;;;;;5074254;28;20895;-56
2022/08/21 13:01:24;;;;;;;6.13;3.77;;;30.50;53.40;;;;;;5074336;28;20729;-56
2022/08/21 13:03:53;;;;;;;7.10;4.60;;;29.80;53.60;;;;;;5074381;28;20443;-56
2022/08/21 13:06:23;;;;;;;7.50;4.50;;;29.50;54.50;;;;;;5074572;28;20448;-56